This is the latest recevied weather packets stored in our database for station/object K7SKM. If no packets are shown the sender has not sent any weather packets the latest 10 day(s).
| Time | Temp. | Humidity | Pressure | Rain* | Wind** | Luminosity | Snow |
|---|---|---|---|---|---|---|---|
| 1787600197 | 25.56° C | 50% | 1021.2 hPa | 0 mm | - | 405 W/m² | - |
| 1787599893 | 25° C | 52% | 1021.3 hPa | 0 mm | - | 401 W/m² | - |
| 1787599589 | 25° C | 52% | 1021.3 hPa | 0 mm | - | 401 W/m² | - |
| 1787599285 | 25° C | 51% | 1021.4 hPa | 0 mm | - | 396 W/m² | - |
| 1787598980 | 25° C | 53% | 1021.5 hPa | 0 mm | - | 390 W/m² | - |
| 1787598676 | 23.89° C | 54% | 1021.4 hPa | 0 mm | - | 388 W/m² | - |
| 1787598375 | 23.89° C | 55% | 1021.6 hPa | 0 mm | - | 380 W/m² | - |
| 1787598072 | 24.44° C | 53% | 1021.7 hPa | 0 mm | - | 378 W/m² | - |
| 1787597767 | 23.89° C | 55% | 1021.6 hPa | 0 mm | - | 371 W/m² | - |
| 1787597465 | 22.78° C | 58% | 1021.6 hPa | 0 mm | - | 363 W/m² | - |
| 1787597160 | 23.33° C | 56% | 1021.8 hPa | 0 mm | - | 360 W/m² | - |
| 1787596856 | 22.78° C | 56% | 1022 hPa | 0 mm | - | 357 W/m² | - |
| 1787596551 | 23.33° C | 56% | 1022.1 hPa | 0 mm | - | 349 W/m² | - |
| 1787596246 | 22.78° C | 57% | 1022 hPa | 0 mm | - | 342 W/m² | - |
| 1787595943 | 21.67° C | 60% | 1022 hPa | 0 mm | - | 331 W/m² | - |
| 1787595638 | 22.22° C | 60% | 1022 hPa | 0 mm | - | 325 W/m² | - |
| 1787595334 | 22.22° C | 60% | 1022.2 hPa | 0 mm | - | 318 W/m² | - |
| 1787595033 | 21.67° C | 61% | 1022.2 hPa | 0 mm | - | 312 W/m² | - |
| 1787594727 | 21.67° C | 61% | 1022.4 hPa | 0 mm | - | 306 W/m² | - |
| 1787594427 | 22.22° C | 60% | 1022.3 hPa | 0 mm | - | 299 W/m² | - |
| 1787594121 | 21.67° C | 61% | 1022.6 hPa | 0 mm | - | 291 W/m² | - |
| 1787593817 | 20.56° C | 65% | 1022.5 hPa | 0 mm | - | 281 W/m² | - |
| 1787593511 | 20.56° C | 65% | 1022.6 hPa | 0 mm | - | 276 W/m² | - |
| 1787593207 | 21.11° C | 64% | 1022.6 hPa | 0 mm | - | 271 W/m² | - |
| 1787592901 | 20.56° C | 66% | 1022.6 hPa | 0 mm | - | 262 W/m² | - |
* Rain latest hour (hover to see other rain measurements)
** Current wind speed in m/s (hover to see current wind gust speed)